Ana Sayfa
METAR-TAF:

METAR-TAF

Havaalanları :

Normanton, Avustralya

Enlem: 17-41-06S, Boylam: 141-04-12E, yükseklik: 22 m

Güncel hava durumu gözlemi

Rapor saat 15:00 UTC de 26 dakika önce yapıldı.
Rüzgar güneydan 11 kt
Sıcaklık 19°C
Nem 11%
Basınç 1018 hPa
Görüş mesafesi 10 km veya daha fazla

METAR: YNTN 211500Z AUTO 18011KT 9999 // NCD 19/M12 Q1018

Saat: 01:26 (15:26 UTC)


TAF: eksik

4.000'den fazla havaalanı için hava durumu gözlemleri ve tahminleri (METAR ve TAF raporları).

Kullanılabilir istasyonlar harita üzerinde sarı ve kırmızı noktalarla gösterilir.

İstasyonun adını görmek için fareyi noktanın üzerinde gezdirin.

Sonrasında hava gözlem ve tahminlerini görmek için tıklayın.

Haritayı değiştirmek için: yaklaştırmak için siyah artı işaretli yeşil düğmeye ve uzaklaştırmak için de eksi işaretli düğmeye hızla tıklayın; bitişik haritalar için yeşil okları kullanın.


METAR-TAF: